createdAt,value
2023-01-09T00:01:48.902Z,9.47
2023-01-09T00:04:17.480Z,9.18
2023-01-09T00:06:50.547Z,9.30
2023-01-09T00:09:19.743Z,9.10
2023-01-09T00:11:48.303Z,10.13
2023-01-09T00:14:16.308Z,9.37
2023-01-09T00:16:44.755Z,9.50
2023-01-09T00:19:13.000Z,9.75
2023-01-09T00:21:40.643Z,8.73
2023-01-09T00:24:09.051Z,9.55
2023-01-09T00:26:38.513Z,9.40
2023-01-09T00:29:06.629Z,9.30
2023-01-09T00:31:34.689Z,8.75
2023-01-09T00:34:05.785Z,9.27
2023-01-09T00:36:33.982Z,9.25
2023-01-09T00:39:02.886Z,8.67
2023-01-09T00:41:34.076Z,8.85
2023-01-09T00:44:08.333Z,8.35
2023-01-09T00:46:40.712Z,9.35
2023-01-09T00:49:10.011Z,10.13
2023-01-09T00:51:39.366Z,10.20
2023-01-09T00:54:07.341Z,9.52
2023-01-09T00:56:38.169Z,8.85
2023-01-09T00:59:09.750Z,10.05
2023-01-09T01:01:37.739Z,8.85
2023-01-09T01:04:26.027Z,8.47
2023-01-09T01:07:13.437Z,9.07
2023-01-09T01:09:41.680Z,8.93
2023-01-09T01:12:09.796Z,8.52
2023-01-09T01:14:39.900Z,7.70
2023-01-09T01:17:08.898Z,8.40
2023-01-09T01:19:36.927Z,8.55
2023-01-09T01:22:04.908Z,8.25
2023-01-09T01:24:33.115Z,8.20
2023-01-09T01:27:01.714Z,8.25
2023-01-09T01:29:29.686Z,9.00
2023-01-09T01:32:00.208Z,9.13
2023-01-09T01:34:30.061Z,8.45
2023-01-09T01:36:58.216Z,8.68
2023-01-09T01:39:25.979Z,9.63
2023-01-09T01:41:53.803Z,10.93
2023-01-09T01:44:57.525Z,10.93
2023-01-09T01:47:33.589Z,8.93
2023-01-09T01:50:04.744Z,8.52
2023-01-09T01:52:36.055Z,9.07
2023-01-09T01:55:06.107Z,8.63
2023-01-09T01:57:34.563Z,8.30
2023-01-09T02:00:04.068Z,9.63
2023-01-09T02:02:34.843Z,10.07
2023-01-09T02:05:03.415Z,9.32
2023-01-09T02:07:31.792Z,9.73
2023-01-09T02:10:00.085Z,9.63
2023-01-09T02:12:29.466Z,9.30
2023-01-09T02:15:00.460Z,9.00
2023-01-09T02:17:44.696Z,9.18
2023-01-09T02:20:35.286Z,8.67
2023-01-09T02:23:43.660Z,8.85
2023-01-09T02:26:30.262Z,9.65
2023-01-09T02:29:27.239Z,8.95
2023-01-09T02:32:00.984Z,9.10
2023-01-09T02:34:38.407Z,7.77
2023-01-09T02:37:14.542Z,8.90
2023-01-09T02:39:49.598Z,8.85
2023-01-09T02:42:20.732Z,8.45
2023-01-09T02:44:48.990Z,9.77
2023-01-09T02:47:40.479Z,8.47
2023-01-09T02:50:13.647Z,8.60
2023-01-09T02:53:02.615Z,8.35
2023-01-09T02:55:42.180Z,9.52
2023-01-09T02:58:12.657Z,8.02
2023-01-09T03:00:54.128Z,7.60
2023-01-09T03:03:32.137Z,8.27
2023-01-09T03:06:12.459Z,8.27
2023-01-09T03:08:43.370Z,8.35
2023-01-09T03:11:12.058Z,8.23
2023-01-09T03:13:45.964Z,7.03
2023-01-09T03:16:17.016Z,7.07
2023-01-09T03:18:48.409Z,6.93
2023-01-09T03:21:17.349Z,7.03
2023-01-09T03:23:51.180Z,7.00
2023-01-09T03:26:19.997Z,6.17
2023-01-09T03:28:48.633Z,5.97
2023-01-09T03:34:06.762Z,6.13
2023-01-09T03:36:35.288Z,6.50
2023-01-09T03:39:03.651Z,6.27
2023-01-09T03:41:31.387Z,6.20
2023-01-09T03:43:59.637Z,6.40
2023-01-09T03:46:27.666Z,6.97
2023-01-09T03:48:55.731Z,6.32
2023-01-09T03:51:24.961Z,6.20
2023-01-09T03:53:53.214Z,6.43
2023-01-09T03:56:21.074Z,6.53
2023-01-09T03:58:50.144Z,6.75
2023-01-09T04:01:18.498Z,6.18
2023-01-09T04:03:46.483Z,7.70
2023-01-09T04:06:14.546Z,6.82
2023-01-09T04:08:44.025Z,6.50
2023-01-09T04:11:12.305Z,6.43
2023-01-09T04:13:41.253Z,6.50
2023-01-09T04:16:09.801Z,6.67
2023-01-09T04:18:38.184Z,6.88
2023-01-09T04:21:06.153Z,6.85
2023-01-09T04:23:33.818Z,6.57
2023-01-09T04:26:03.799Z,6.78
2023-01-09T04:28:31.681Z,7.30
2023-01-09T04:30:59.694Z,7.13
2023-01-09T04:33:28.024Z,7.07
2023-01-09T04:35:56.526Z,7.18
2023-01-09T04:38:24.534Z,6.75
2023-01-09T04:40:52.374Z,6.60
2023-01-09T04:43:21.633Z,7.00
2023-01-09T04:45:49.923Z,6.85
2023-01-09T04:48:17.766Z,6.82
2023-01-09T04:50:45.847Z,6.53
2023-01-09T04:53:13.761Z,7.70
2023-01-09T04:55:43.095Z,7.65
2023-01-09T04:58:10.928Z,7.35
2023-01-09T05:00:40.370Z,7.18
2023-01-09T05:03:08.168Z,7.45
2023-01-09T05:05:35.925Z,7.63
2023-01-09T05:08:04.028Z,6.80
2023-01-09T05:10:31.886Z,7.50
2023-01-09T05:12:59.697Z,7.72
2023-01-09T05:15:28.614Z,7.25
2023-01-09T05:17:58.078Z,7.33
2023-01-09T05:20:26.045Z,7.07
2023-01-09T05:22:53.813Z,7.55
2023-01-09T05:25:21.554Z,7.50
2023-01-09T05:27:49.155Z,7.57
2023-01-09T05:30:18.438Z,6.40
2023-01-09T05:32:46.490Z,7.43
2023-01-09T05:35:16.670Z,8.43
2023-01-09T05:37:44.361Z,6.97
2023-01-09T05:40:13.495Z,7.93
2023-01-09T05:42:41.574Z,8.23
2023-01-09T05:45:11.274Z,8.05
2023-01-09T05:47:39.654Z,8.70
2023-01-09T05:50:08.037Z,7.93
2023-01-09T05:52:36.938Z,8.45
2023-01-09T05:55:05.424Z,7.20
2023-01-09T05:57:33.110Z,7.55
2023-01-09T06:00:01.335Z,7.35
2023-01-09T06:02:29.282Z,9.15
2023-01-09T06:04:57.195Z,8.23
2023-01-09T06:07:24.972Z,7.73
2023-01-09T06:09:54.328Z,7.85
2023-01-09T06:12:22.157Z,7.60
2023-01-09T06:14:49.721Z,6.82
2023-01-09T06:17:17.614Z,7.35
2023-01-09T06:19:45.893Z,7.37
2023-01-09T06:22:13.707Z,7.10
2023-01-09T06:24:41.668Z,7.57
2023-01-09T06:27:12.983Z,7.93
2023-01-09T06:29:41.302Z,11.85
2023-01-09T06:32:09.230Z,10.77
2023-01-09T06:34:37.615Z,9.77
2023-01-09T06:37:05.764Z,8.05
2023-01-09T06:39:33.613Z,7.50
2023-01-09T06:42:01.585Z,7.78
2023-01-09T06:44:31.098Z,8.07
2023-01-09T06:46:58.950Z,7.65
2023-01-09T06:49:26.813Z,7.22
2023-01-09T06:51:55.045Z,6.22
2023-01-09T06:54:23.345Z,5.97
2023-01-09T06:56:51.219Z,5.50
2023-01-09T06:59:19.091Z,4.25
2023-01-09T07:01:48.667Z,3.83
2023-01-09T07:04:17.656Z,3.00
2023-01-09T07:06:48.420Z,3.33
2023-01-09T07:09:16.511Z,2.20
2023-01-09T07:11:44.134Z,1.73
2023-01-09T07:14:12.248Z,4.00
2023-01-09T07:16:40.211Z,2.22
2023-01-09T07:19:09.534Z,2.00
2023-01-09T07:21:37.513Z,1.40
2023-01-09T07:24:05.601Z,1.75
2023-01-09T07:26:33.444Z,1.70
2023-01-09T07:29:01.620Z,1.40
2023-01-09T07:31:29.687Z,0.70
2023-01-09T07:33:57.847Z,1.23
2023-01-09T07:36:27.203Z,0.77
2023-01-09T07:38:55.195Z,0.90
2023-01-09T07:41:23.178Z,1.05
2023-01-09T07:43:50.898Z,0.77
2023-01-09T07:46:18.812Z,0.50
2023-01-09T07:48:46.784Z,0.95
2023-01-09T07:51:14.680Z,0.68
2023-01-09T07:53:43.882Z,1.02
2023-01-09T07:56:12.203Z,0.60
2023-01-09T07:58:40.963Z,0.40
2023-01-09T08:01:08.788Z,0.32
2023-01-09T08:03:36.873Z,0.57
2023-01-09T08:06:04.500Z,3.17
2023-01-09T08:08:32.096Z,4.43
2023-01-09T08:11:01.173Z,1.83
2023-01-09T08:13:29.191Z,2.90
2023-01-09T08:15:56.802Z,3.20
2023-01-09T08:18:24.632Z,1.65
2023-01-09T08:20:54.764Z,1.42
2023-01-09T08:23:22.772Z,0.90
2023-01-09T08:25:50.649Z,1.10
2023-01-09T08:28:19.846Z,0.60
2023-01-09T08:30:48.309Z,0.10
2023-01-09T08:33:16.344Z,0.25
2023-01-09T08:35:44.890Z,0.53
2023-01-09T08:38:13.366Z,0.30
2023-01-09T08:40:41.217Z,0.82
2023-01-09T08:43:27.862Z,0.70
2023-01-09T08:46:14.616Z,0.50
2023-01-09T08:48:43.828Z,0.10
2023-01-09T08:51:12.158Z,0.70
2023-01-09T08:53:40.009Z,0.47
2023-01-09T08:56:08.198Z,0.77
2023-01-09T08:58:36.325Z,0.10
2023-01-09T09:01:08.595Z,1.30
2023-01-09T09:03:36.187Z,0.85
2023-01-09T09:06:04.195Z,0.55
2023-01-09T09:08:32.395Z,1.00
2023-01-09T09:11:01.191Z,0.98
2023-01-09T09:13:28.757Z,0.60
2023-01-09T09:15:56.748Z,0.85
2023-01-09T09:18:26.158Z,0.70
2023-01-09T09:20:54.089Z,0.52
2023-01-09T09:23:23.491Z,0.60
2023-01-09T09:25:51.462Z,0.50
2023-01-09T09:28:19.077Z,0.40
2023-01-09T09:30:47.100Z,0.22
2023-01-09T09:33:15.678Z,0.40
2023-01-09T09:35:44.848Z,1.83
2023-01-09T09:38:13.597Z,1.00
2023-01-09T09:40:57.918Z,2.17
2023-01-09T09:44:01.131Z,0.60
2023-01-09T09:46:41.376Z,0.35
2023-01-09T09:49:16.434Z,0.45
2023-01-09T09:51:55.887Z,0.70
2023-01-09T09:54:28.315Z,0.20
2023-01-09T09:57:00.775Z,0.28
2023-01-09T09:59:32.501Z,0.20
2023-01-09T10:02:04.087Z,0.10
2023-01-09T10:04:34.481Z,0.10
2023-01-09T10:07:09.634Z,0.10
2023-01-09T10:09:48.391Z,0.30
2023-01-09T10:12:28.723Z,0.32
2023-01-09T10:14:58.367Z,0.28
2023-01-09T10:17:39.065Z,0.50
2023-01-09T10:20:42.835Z,0.32
2023-01-09T10:23:39.865Z,0.50
2023-01-09T10:26:12.722Z,0.38
2023-01-09T10:28:57.388Z,0.63
2023-01-09T10:31:33.178Z,0.30
2023-01-09T10:34:15.689Z,0.40
2023-01-09T10:36:59.517Z,0.20
2023-01-09T10:39:34.151Z,0.40
2023-01-09T10:42:06.235Z,0.80
2023-01-09T10:44:38.812Z,1.53
2023-01-09T10:47:12.797Z,0.60
2023-01-09T10:49:41.476Z,0.80
2023-01-09T10:52:17.045Z,1.30
2023-01-09T10:54:52.763Z,0.50
2023-01-09T10:57:41.809Z,1.30
2023-01-09T11:00:16.946Z,0.43
2023-01-09T11:02:44.854Z,0.60
2023-01-09T11:05:16.812Z,1.55
2023-01-09T11:07:47.313Z,0.85
2023-01-09T11:10:18.402Z,0.70
2023-01-09T11:12:47.311Z,0.55
2023-01-09T11:15:40.489Z,0.50
2023-01-09T11:18:25.876Z,0.30
2023-01-09T11:20:54.153Z,0.38
2023-01-09T11:23:30.518Z,0.70
2023-01-09T11:26:01.025Z,0.98
2023-01-09T11:28:29.719Z,2.47
2023-01-09T11:31:01.429Z,1.70
2023-01-09T11:33:31.256Z,1.27
2023-01-09T11:36:04.198Z,1.93
2023-01-09T11:38:33.456Z,2.00
2023-01-09T11:41:06.688Z,1.05
2023-01-09T11:43:37.867Z,1.17
2023-01-09T11:46:07.444Z,0.77
2023-01-09T11:48:39.014Z,1.43
2023-01-09T11:51:18.086Z,0.80
2023-01-09T11:53:58.429Z,1.17
2023-01-09T11:56:27.940Z,0.77
2023-01-09T11:58:55.882Z,0.90
2023-01-09T12:01:46.699Z,1.40
2023-01-09T12:04:28.547Z,1.45
2023-01-09T12:07:24.680Z,0.80
2023-01-09T12:10:03.457Z,0.90
2023-01-09T12:12:41.530Z,2.25
2023-01-09T12:15:27.158Z,1.50
2023-01-09T12:18:11.969Z,1.08
2023-01-09T12:20:59.690Z,0.95
2023-01-09T12:23:42.212Z,1.20
2023-01-09T12:26:17.705Z,0.63
2023-01-09T12:29:08.482Z,1.27
2023-01-09T12:31:46.879Z,1.98
2023-01-09T12:34:30.622Z,0.82
2023-01-09T12:37:11.763Z,1.33
2023-01-09T12:39:48.833Z,1.23
2023-01-09T12:42:33.999Z,0.73
2023-01-09T12:45:13.959Z,1.05
2023-01-09T12:47:47.389Z,3.17
2023-01-09T12:50:29.181Z,2.90
2023-01-09T12:53:07.797Z,2.17
2023-01-09T12:55:39.990Z,2.20
2023-01-09T12:58:17.449Z,1.00
2023-01-09T13:00:50.476Z,1.10
2023-01-09T13:03:25.232Z,1.35
2023-01-09T13:05:57.338Z,2.90
2023-01-09T13:08:30.763Z,1.00
2023-01-09T13:11:18.841Z,0.45
2023-01-09T13:13:50.372Z,0.60
2023-01-09T13:16:24.905Z,1.17
2023-01-09T13:18:57.888Z,0.70
2023-01-09T13:21:26.829Z,0.57
2023-01-09T13:24:01.652Z,0.30
2023-01-09T13:26:32.342Z,0.40
2023-01-09T13:29:04.431Z,0.43
2023-01-09T13:31:46.307Z,1.08
2023-01-09T13:34:22.415Z,1.87
2023-01-09T13:36:53.061Z,0.70
2023-01-09T13:39:23.753Z,0.43
2023-01-09T13:42:12.806Z,0.57
2023-01-09T13:44:41.402Z,0.50
2023-01-09T13:47:18.763Z,0.80
2023-01-09T13:50:01.566Z,0.88
2023-01-09T13:52:32.396Z,1.88
2023-01-09T13:55:28.757Z,2.00
2023-01-09T13:58:19.048Z,2.80
2023-01-09T14:00:52.875Z,0.57
2023-01-09T14:03:27.636Z,2.13
2023-01-09T14:06:12.919Z,0.60
2023-01-09T14:08:43.108Z,0.77
2023-01-09T14:11:19.885Z,1.20
2023-01-09T14:13:53.549Z,1.00
2023-01-09T14:16:24.747Z,0.40
2023-01-09T14:18:58.965Z,4.07
2023-01-09T14:21:27.260Z,1.33
2023-01-09T14:24:04.451Z,0.40
2023-01-09T14:26:45.247Z,0.70
2023-01-09T14:29:39.249Z,1.38
2023-01-09T14:32:39.366Z,1.85
2023-01-09T14:35:16.691Z,1.00
2023-01-09T14:37:46.186Z,0.40
2023-01-09T14:40:22.807Z,0.57
2023-01-09T14:42:54.436Z,1.08
2023-01-09T14:45:24.686Z,0.90
2023-01-09T14:47:56.647Z,0.70
2023-01-09T14:50:33.403Z,0.77
2023-01-09T14:53:06.061Z,0.80
2023-01-09T14:55:41.283Z,1.65
2023-01-09T14:58:13.792Z,2.60
2023-01-09T15:00:49.809Z,4.38
2023-01-09T15:03:18.680Z,2.83
2023-01-09T15:05:49.032Z,1.37
2023-01-09T15:08:20.075Z,1.75
2023-01-09T15:10:49.821Z,1.60
2023-01-09T15:13:21.274Z,5.00
2023-01-09T15:15:50.729Z,5.75
2023-01-09T15:18:25.224Z,3.67
2023-01-09T15:20:59.166Z,4.97
2023-01-09T15:23:30.548Z,7.60
2023-01-09T15:25:59.042Z,7.38
2023-01-09T15:28:30.949Z,4.35
2023-01-09T15:31:05.661Z,2.40
2023-01-09T15:33:35.007Z,1.13
2023-01-09T15:36:09.317Z,1.00
2023-01-09T15:38:37.582Z,1.08
2023-01-09T15:41:09.140Z,0.82
2023-01-09T15:43:42.286Z,1.10
2023-01-09T15:46:12.142Z,1.48
2023-01-09T15:48:40.240Z,2.53
2023-01-09T15:51:13.478Z,2.95
2023-01-09T15:53:42.162Z,4.10
2023-01-09T15:56:19.621Z,6.97
2023-01-09T15:58:48.800Z,5.53
2023-01-09T16:01:26.976Z,9.02
2023-01-09T16:03:57.490Z,7.47
2023-01-09T16:06:29.833Z,6.30
2023-01-09T16:08:59.811Z,6.13
2023-01-09T16:11:30.268Z,5.20
2023-01-09T16:14:04.123Z,4.00
2023-01-09T16:16:35.131Z,2.60
2023-01-09T16:19:03.124Z,4.22
2023-01-09T16:21:34.995Z,3.70
2023-01-09T16:24:20.046Z,2.33
2023-01-09T16:26:48.067Z,1.67
2023-01-09T16:29:30.005Z,1.60
2023-01-09T16:32:01.764Z,1.30
2023-01-09T16:34:30.341Z,1.77
2023-01-09T16:37:03.017Z,5.00
2023-01-09T16:39:31.140Z,3.95
2023-01-09T16:42:16.381Z,2.30
2023-01-09T16:44:44.423Z,2.53
2023-01-09T16:47:13.001Z,1.37
2023-01-09T16:49:40.930Z,2.10
2023-01-09T16:52:17.339Z,2.17
2023-01-09T16:54:46.912Z,2.83
2023-01-09T16:57:18.599Z,4.80
2023-01-09T16:59:47.420Z,3.33
2023-01-09T17:02:19.561Z,2.30
2023-01-09T17:04:47.523Z,1.90
2023-01-09T17:07:18.463Z,1.25
2023-01-09T17:09:48.100Z,2.10
2023-01-09T17:12:20.108Z,1.60
2023-01-09T17:14:48.597Z,1.60
2023-01-09T17:17:16.860Z,1.40
2023-01-09T17:19:46.650Z,1.38
2023-01-09T17:22:16.759Z,1.60
2023-01-09T17:25:02.232Z,1.80
2023-01-09T17:27:51.923Z,1.95
2023-01-09T17:30:20.941Z,2.20
2023-01-09T17:32:49.257Z,2.60
2023-01-09T17:35:18.768Z,2.90
2023-01-09T17:37:48.547Z,3.63
2023-01-09T17:40:20.191Z,3.63
2023-01-09T17:42:48.560Z,4.93
2023-01-09T17:45:17.018Z,4.28
2023-01-09T17:47:44.956Z,4.43
2023-01-09T17:50:19.997Z,4.70
2023-01-09T17:52:51.003Z,5.93
2023-01-09T17:55:19.334Z,4.50
2023-01-09T17:57:47.383Z,4.38
2023-01-09T18:00:26.581Z,4.13
2023-01-09T18:02:54.913Z,3.80
2023-01-09T18:05:23.950Z,2.58
2023-01-09T18:07:53.170Z,2.55
2023-01-09T18:10:24.165Z,1.98
2023-01-09T18:12:54.007Z,1.65
2023-01-09T18:15:23.373Z,1.30
2023-01-09T18:17:51.484Z,0.90
2023-01-09T18:20:19.790Z,2.10
2023-01-09T18:22:49.350Z,1.60
2023-01-09T18:25:19.069Z,1.77
2023-01-09T18:27:47.041Z,1.40
2023-01-09T18:30:15.241Z,2.25
2023-01-09T18:32:43.111Z,2.72
2023-01-09T18:35:11.627Z,1.60
2023-01-09T18:37:39.422Z,1.60
2023-01-09T18:40:09.349Z,1.40
2023-01-09T18:42:40.525Z,1.30
2023-01-09T18:45:09.630Z,1.50
2023-01-09T18:47:37.571Z,1.30
2023-01-09T18:50:06.421Z,1.42
2023-01-09T18:52:34.372Z,2.07
2023-01-09T18:55:02.305Z,1.63
2023-01-09T18:57:30.062Z,1.60
2023-01-09T18:59:59.558Z,1.88
2023-01-09T19:02:28.099Z,2.03
2023-01-09T19:04:56.105Z,1.83
2023-01-09T19:07:24.455Z,1.75
2023-01-09T19:09:52.333Z,1.88
2023-01-09T19:12:20.396Z,2.10
2023-01-09T19:14:48.238Z,1.67
2023-01-09T19:17:17.420Z,1.70
2023-01-09T19:19:45.276Z,1.00
2023-01-09T19:22:15.077Z,2.20
2023-01-09T19:24:43.024Z,2.50
2023-01-09T19:27:10.996Z,2.58
2023-01-09T19:29:39.003Z,2.27
2023-01-09T19:32:08.683Z,1.95
2023-01-09T19:34:38.002Z,1.58
2023-01-09T19:37:08.281Z,2.38
2023-01-09T19:39:37.760Z,2.47
2023-01-09T19:42:06.414Z,2.40
2023-01-09T19:44:37.368Z,1.95
2023-01-09T19:47:05.171Z,2.10
2023-01-09T19:49:33.922Z,2.78
2023-01-09T19:52:03.538Z,1.50
2023-01-09T19:54:32.809Z,1.47
2023-01-09T19:57:00.561Z,1.27
2023-01-09T19:59:28.463Z,1.40
2023-01-09T20:01:56.449Z,1.50
2023-01-09T20:04:24.244Z,2.05
2023-01-09T20:06:53.289Z,2.43
2023-01-09T20:09:25.833Z,1.48
2023-01-09T20:11:53.472Z,1.10
2023-01-09T20:14:22.706Z,0.52
2023-01-09T20:16:53.945Z,0.90
2023-01-09T20:19:22.202Z,0.40
2023-01-09T20:21:50.606Z,1.10
2023-01-09T20:24:18.492Z,0.73
2023-01-09T20:26:47.821Z,0.82
2023-01-09T20:29:16.855Z,0.80
2023-01-09T20:31:45.212Z,0.87
2023-01-09T20:34:14.053Z,0.85
2023-01-09T20:36:42.081Z,1.00
2023-01-09T20:39:12.865Z,0.70
2023-01-09T20:41:41.150Z,0.90
2023-01-09T20:44:13.795Z,1.10
2023-01-09T20:46:43.469Z,1.08
2023-01-09T20:49:14.160Z,0.70
2023-01-09T20:51:46.991Z,0.73
2023-01-09T20:54:14.954Z,0.70
2023-01-09T20:56:43.037Z,0.60
2023-01-09T20:59:14.938Z,0.80
2023-01-09T21:01:42.600Z,1.13
2023-01-09T21:04:10.329Z,0.80
2023-01-09T21:06:39.046Z,0.70
2023-01-09T21:09:07.134Z,1.43
2023-01-09T21:11:35.366Z,1.02
2023-01-09T21:14:03.219Z,0.70
2023-01-09T21:16:32.502Z,0.65
2023-01-09T21:19:00.521Z,1.13
2023-01-09T21:21:29.019Z,1.00
2023-01-09T21:23:58.634Z,0.85
2023-01-09T21:26:29.228Z,1.15
2023-01-09T21:28:59.068Z,0.43
2023-01-09T21:31:33.660Z,0.60
2023-01-09T21:34:04.488Z,0.50
2023-01-09T21:36:32.404Z,0.60
2023-01-09T21:39:00.872Z,0.52
2023-01-09T21:41:46.608Z,0.57
2023-01-09T21:44:32.314Z,0.55
2023-01-09T21:47:00.866Z,0.63
2023-01-09T21:49:31.498Z,0.77
2023-01-09T21:51:59.933Z,0.60
2023-01-09T21:54:29.925Z,0.68
2023-01-09T21:56:58.365Z,0.77
2023-01-09T21:59:27.033Z,1.00
2023-01-09T22:01:55.008Z,0.50
2023-01-09T22:04:28.047Z,1.00
2023-01-09T22:06:57.645Z,1.08
2023-01-09T22:09:25.286Z,1.05
2023-01-09T22:11:53.331Z,0.83
2023-01-09T22:14:24.661Z,1.00
2023-01-09T22:16:55.935Z,0.95
2023-01-09T22:19:23.589Z,1.17
2023-01-09T22:21:51.737Z,1.00
2023-01-09T22:24:22.269Z,0.77
2023-01-09T22:26:50.099Z,1.10
2023-01-09T22:29:18.240Z,0.77
2023-01-09T22:31:46.588Z,1.20
2023-01-09T22:34:16.651Z,0.63
2023-01-09T22:36:46.136Z,0.57
2023-01-09T22:39:15.692Z,0.80
2023-01-09T22:41:45.646Z,0.60
2023-01-09T22:44:14.189Z,0.80
2023-01-09T22:46:42.129Z,0.57
2023-01-09T22:49:12.145Z,0.77
2023-01-09T22:51:40.331Z,1.35
2023-01-09T22:54:08.111Z,1.20
2023-01-09T22:56:36.534Z,1.23
2023-01-09T22:59:06.287Z,0.75
2023-01-09T23:01:34.248Z,0.63
2023-01-09T23:04:04.108Z,0.80
2023-01-09T23:06:32.035Z,0.70
2023-01-09T23:08:59.930Z,0.57
2023-01-09T23:11:47.766Z,0.60
2023-01-09T23:14:17.712Z,0.63
2023-01-09T23:16:45.621Z,0.70
2023-01-09T23:19:16.239Z,0.43
2023-01-09T23:21:45.152Z,0.63
2023-01-09T23:24:14.634Z,0.60
2023-01-09T23:26:45.671Z,0.63
2023-01-09T23:29:15.097Z,0.40
2023-01-09T23:31:46.577Z,0.70
2023-01-09T23:34:17.882Z,0.55
2023-01-09T23:37:11.771Z,0.57
2023-01-09T23:39:39.885Z,0.67
2023-01-09T23:42:25.458Z,0.82
2023-01-09T23:44:53.042Z,0.57
2023-01-09T23:47:22.108Z,0.65
2023-01-09T23:49:50.057Z,0.60
2023-01-09T23:52:18.658Z,0.70
2023-01-09T23:54:46.691Z,0.52
2023-01-09T23:57:14.872Z,0.50
2023-01-09T23:59:43.304Z,0.60
